createdAt,value
2023-02-18T00:01:32.741Z,99027.16
2023-02-18T00:04:00.722Z,99017.72
2023-02-18T00:06:32.801Z,99048.31
2023-02-18T00:09:02.483Z,99034.38
2023-02-18T00:11:32.082Z,98994.31
2023-02-18T00:14:01.433Z,99021.63
2023-02-18T00:16:29.560Z,99010.72
2023-02-18T00:19:04.726Z,99029.22
2023-02-18T00:21:33.808Z,99030.84
2023-02-18T00:24:00.666Z,99002.97
2023-02-18T00:26:27.734Z,99019.16
2023-02-18T00:28:54.381Z,99038.22
2023-02-18T00:31:28.090Z,98984.44
2023-02-18T00:33:55.061Z,99032.03
2023-02-18T00:36:22.779Z,99031.44
2023-02-18T00:38:55.840Z,99008.84
2023-02-18T00:41:24.350Z,99023.66
2023-02-18T00:43:51.484Z,98980.75
2023-02-18T00:46:20.622Z,99015.25
2023-02-18T00:48:47.539Z,99023.28
2023-02-18T00:51:14.454Z,99011.63
2023-02-18T00:53:41.394Z,99015.69
2023-02-18T00:56:09.212Z,98995.38
2023-02-18T00:58:36.820Z,99006.22
2023-02-18T01:01:07.413Z,98992.91
2023-02-18T01:03:36.307Z,98966.84
2023-02-18T01:06:04.317Z,99010.56
2023-02-18T01:08:33.928Z,98982.41
2023-02-18T01:11:01.094Z,98976.50
2023-02-18T01:13:29.336Z,98990.03
2023-02-18T01:15:56.532Z,99015.91
2023-02-18T01:18:23.609Z,99007.28
2023-02-18T01:20:50.199Z,99023.06
2023-02-18T01:23:16.867Z,99039.88
2023-02-18T01:25:43.758Z,99015.69
2023-02-18T01:28:12.829Z,99031.28
2023-02-18T01:30:40.407Z,99017.34
2023-02-18T01:33:07.504Z,99019.56
2023-02-18T01:35:37.906Z,98999.84
2023-02-18T01:38:04.955Z,99015.28
2023-02-18T01:40:33.293Z,99014.66
2023-02-18T01:43:00.752Z,98990.81
2023-02-18T01:45:33.377Z,99015.66
2023-02-18T01:48:14.118Z,99011.56
2023-02-18T01:50:49.046Z,98993.47
2023-02-18T01:53:21.987Z,99027.13
2023-02-18T01:55:49.647Z,99015.22
2023-02-18T01:58:18.157Z,98993.25
2023-02-18T02:00:46.205Z,99010.88
2023-02-18T02:03:15.011Z,98973.13
2023-02-18T02:05:43.564Z,99024.06
2023-02-18T02:08:14.720Z,99011.34
2023-02-18T02:10:52.706Z,99012.38
2023-02-18T02:13:46.622Z,98983.25
2023-02-18T02:16:40.617Z,98996.19
2023-02-18T02:19:35.426Z,99002.34
2023-02-18T02:22:28.168Z,99007.50
2023-02-18T02:25:04.102Z,99004.00
2023-02-18T02:28:09.855Z,99003.34
2023-02-18T02:31:15.408Z,98983.66
2023-02-18T02:34:15.546Z,98981.22
2023-02-18T02:36:54.285Z,98978.94
2023-02-18T02:39:30.502Z,98950.63
2023-02-18T02:42:19.276Z,98968.94
2023-02-18T02:44:52.637Z,98965.84
2023-02-18T02:47:45.485Z,98964.63
2023-02-18T02:50:58.126Z,98963.56
2023-02-18T02:53:30.031Z,98971.75
2023-02-18T02:55:57.004Z,98890.25
2023-02-18T02:58:25.086Z,98974.22
2023-02-18T03:01:18.715Z,98965.59
2023-02-18T03:04:22.860Z,98963.56
2023-02-18T03:07:04.546Z,98964.34
2023-02-18T03:09:40.553Z,98950.84
2023-02-18T03:12:26.979Z,98950.84
2023-02-18T03:15:05.728Z,98946.91
2023-02-18T03:17:46.140Z,98925.38
2023-02-18T03:20:31.435Z,98930.31
2023-02-18T03:23:01.467Z,98915.09
2023-02-18T03:25:29.211Z,98941.00
2023-02-18T03:27:59.577Z,98888.47
2023-02-18T03:30:47.985Z,98928.94
2023-02-18T03:33:20.871Z,98949.25
2023-02-18T03:35:52.150Z,98941.84
2023-02-18T03:38:24.162Z,98923.16
2023-02-18T03:40:51.399Z,98971.38
2023-02-18T03:43:18.547Z,98956.56
2023-02-18T03:45:45.220Z,98945.28
2023-02-18T03:48:12.082Z,98937.31
2023-02-18T03:50:38.913Z,98953.78
2023-02-18T03:53:05.417Z,98941.03
2023-02-18T03:55:32.586Z,98923.81
2023-02-18T03:57:59.209Z,98925.88
2023-02-18T04:00:25.732Z,98919.91
2023-02-18T04:02:52.962Z,98939.41
2023-02-18T04:05:19.473Z,98915.41
2023-02-18T04:07:55.042Z,98909.03
2023-02-18T04:10:22.872Z,98932.81
2023-02-18T04:12:49.905Z,98920.94
2023-02-18T04:15:16.726Z,98913.78
2023-02-18T04:17:43.525Z,98925.44
2023-02-18T04:20:10.962Z,98917.06
2023-02-18T04:22:37.626Z,98897.59
2023-02-18T04:25:04.678Z,98909.91
2023-02-18T04:27:32.022Z,98899.63
2023-02-18T04:29:58.835Z,98908.88
2023-02-18T04:32:26.218Z,98899.63
2023-02-18T04:34:53.436Z,98912.78
2023-02-18T04:37:19.944Z,98864.94
2023-02-18T04:39:46.442Z,98915.84
2023-02-18T04:42:13.092Z,98911.72
2023-02-18T04:44:40.257Z,98917.66
2023-02-18T04:47:07.692Z,98902.31
2023-02-18T04:49:35.393Z,98894.31
2023-02-18T04:52:04.454Z,98894.50
2023-02-18T04:54:32.405Z,98904.75
2023-02-18T04:56:59.776Z,98880.09
2023-02-18T04:59:26.539Z,98903.72
2023-02-18T05:01:55.087Z,98905.34
2023-02-18T05:04:22.249Z,98897.16
2023-02-18T05:06:49.077Z,98885.28
2023-02-18T05:09:15.615Z,98887.25
2023-02-18T05:11:45.001Z,98881.94
2023-02-18T05:14:11.796Z,98893.63
2023-02-18T05:16:38.566Z,98871.28
2023-02-18T05:19:05.312Z,98911.22
2023-02-18T05:21:32.520Z,98913.88
2023-02-18T05:23:59.030Z,98906.09
2023-02-18T05:26:26.101Z,98907.81
2023-02-18T05:28:58.154Z,98890.16
2023-02-18T05:31:25.194Z,98870.63
2023-02-18T05:33:51.895Z,98871.50
2023-02-18T05:36:18.608Z,98889.59
2023-02-18T05:38:45.243Z,98875.84
2023-02-18T05:41:11.824Z,98894.72
2023-02-18T05:43:57.575Z,98878.44
2023-02-18T05:46:24.282Z,98882.19
2023-02-18T05:48:51.098Z,98891.88
2023-02-18T05:51:20.749Z,98881.00
2023-02-18T05:53:47.268Z,98888.91
2023-02-18T05:56:13.916Z,98876.59
2023-02-18T05:58:40.476Z,98843.00
2023-02-18T06:01:07.073Z,98852.63
2023-02-18T06:03:34.103Z,98889.91
2023-02-18T06:06:01.166Z,98817.94
2023-02-18T06:08:27.989Z,98884.06
2023-02-18T06:10:55.129Z,98883.03
2023-02-18T06:13:21.972Z,98873.41
2023-02-18T06:15:51.837Z,98884.06
2023-02-18T06:18:19.752Z,98867.63
2023-02-18T06:20:49.909Z,98866.41
2023-02-18T06:23:16.929Z,98828.69
2023-02-18T06:25:47.138Z,98865.41
2023-02-18T06:28:15.234Z,98866.44
2023-02-18T06:30:41.873Z,98850.81
2023-02-18T06:33:09.542Z,98837.28
2023-02-18T06:35:36.581Z,98860.09
2023-02-18T06:38:03.703Z,98844.72
2023-02-18T06:40:30.652Z,98850.88
2023-02-18T06:42:57.211Z,98838.16
2023-02-18T06:45:24.064Z,98828.75
2023-02-18T06:47:50.650Z,98761.47
2023-02-18T06:50:19.859Z,98772.31
2023-02-18T06:52:46.590Z,98845.56
2023-02-18T06:55:13.710Z,98822.59
2023-02-18T06:57:42.938Z,98824.19
2023-02-18T07:00:11.107Z,98810.66
2023-02-18T07:02:37.644Z,98812.72
2023-02-18T07:05:05.938Z,98819.69
2023-02-18T07:07:35.188Z,98830.78
2023-02-18T07:10:02.104Z,98802.47
2023-02-18T07:12:28.808Z,98817.59
2023-02-18T07:14:55.578Z,98796.34
2023-02-18T07:17:22.275Z,98812.38
2023-02-18T07:19:49.958Z,98803.50
2023-02-18T07:22:16.885Z,98814.81
2023-02-18T07:24:43.530Z,98775.41
2023-02-18T07:27:10.641Z,98815.44
2023-02-18T07:29:37.413Z,98809.25
2023-02-18T07:32:04.838Z,98804.94
2023-02-18T07:34:31.700Z,98751.91
2023-02-18T07:36:58.552Z,98789.41
2023-02-18T07:39:27.646Z,98794.75
2023-02-18T07:41:54.671Z,98796.78
2023-02-18T07:44:23.656Z,98813.59
2023-02-18T07:46:53.321Z,98801.28
2023-02-18T07:49:20.918Z,98820.34
2023-02-18T07:51:49.127Z,98799.25
2023-02-18T07:54:18.522Z,98809.50
2023-02-18T07:56:45.701Z,98833.88
2023-02-18T07:59:14.063Z,98791.06
2023-02-18T08:01:43.488Z,98816.88
2023-02-18T08:04:10.807Z,98761.13
2023-02-18T08:06:41.452Z,98816.88
2023-02-18T08:09:08.826Z,98820.56
2023-02-18T08:11:35.918Z,98828.16
2023-02-18T08:14:02.714Z,98809.91
2023-02-18T08:16:29.649Z,98827.72
2023-02-18T08:18:57.058Z,98813.59
2023-02-18T08:21:25.610Z,98815.44
2023-02-18T08:23:55.576Z,98812.16
2023-02-18T08:26:22.198Z,98801.31
2023-02-18T08:28:48.785Z,98828.34
2023-02-18T08:31:21.908Z,98831.03
2023-02-18T08:33:49.235Z,98805.81
2023-02-18T08:36:17.263Z,98817.47
2023-02-18T08:38:44.528Z,98798.00
2023-02-18T08:41:11.758Z,98812.34
2023-02-18T08:43:38.619Z,98764.22
2023-02-18T08:46:05.742Z,98804.53
2023-02-18T08:48:33.619Z,98802.50
2023-02-18T08:51:00.534Z,98788.13
2023-02-18T08:53:29.765Z,98791.03
2023-02-18T08:55:58.618Z,98750.25
2023-02-18T08:58:25.420Z,98797.16
2023-02-18T09:00:53.357Z,98779.94
2023-02-18T09:03:20.178Z,98768.25
2023-02-18T09:05:46.677Z,98790.56
2023-02-18T09:08:13.599Z,98781.97
2023-02-18T09:10:40.220Z,98799.63
2023-02-18T09:13:09.092Z,98788.97
2023-02-18T09:15:36.031Z,98793.47
2023-02-18T09:18:02.955Z,98791.00
2023-02-18T09:20:29.711Z,98798.34
2023-02-18T09:22:58.437Z,98814.72
2023-02-18T09:25:25.562Z,98807.75
2023-02-18T09:27:52.648Z,98722.78
2023-02-18T09:33:40.996Z,98824.00
2023-02-18T09:36:08.855Z,98820.31
2023-02-18T09:38:37.129Z,98816.41
2023-02-18T09:41:09.295Z,98795.94
2023-02-18T09:43:43.984Z,98819.94
2023-02-18T09:46:49.478Z,98829.53
2023-02-18T09:49:27.157Z,98815.41
2023-02-18T09:51:56.692Z,98791.03
2023-02-18T09:54:23.575Z,98815.19
2023-02-18T09:56:53.859Z,98778.72
2023-02-18T09:59:23.853Z,98817.25
2023-02-18T10:01:52.628Z,98811.50
2023-02-18T10:04:32.617Z,98804.97
2023-02-18T10:07:03.645Z,98805.41
2023-02-18T10:09:40.408Z,98807.63
2023-02-18T10:12:21.354Z,98811.91
2023-02-18T10:14:57.078Z,98827.91
2023-02-18T10:17:27.311Z,98801.66
2023-02-18T10:19:56.027Z,98816.41
2023-02-18T10:22:27.086Z,98816.78
2023-02-18T10:25:06.802Z,98836.91
2023-02-18T10:27:38.908Z,98832.81
2023-02-18T10:30:22.995Z,98831.56
2023-02-18T10:33:02.261Z,98804.97
2023-02-18T10:35:40.709Z,98834.88
2023-02-18T10:38:21.182Z,98835.28
2023-02-18T10:41:05.744Z,98846.53
2023-02-18T10:43:55.042Z,98857.44
2023-02-18T10:46:41.444Z,98863.59
2023-02-18T10:49:26.293Z,98869.34
2023-02-18T10:51:56.471Z,98817.91
2023-02-18T10:54:28.005Z,98853.97
2023-02-18T10:57:04.733Z,98828.34
2023-02-18T10:59:33.828Z,98860.94
2023-02-18T11:02:04.109Z,98857.25
2023-02-18T11:04:42.412Z,98816.47
2023-02-18T11:07:20.414Z,98857.84
2023-02-18T11:09:50.622Z,98861.56
2023-02-18T11:12:39.906Z,98805.16
2023-02-18T11:15:19.966Z,98853.56
2023-02-18T11:17:50.291Z,98866.88
2023-02-18T11:20:24.876Z,98857.41
2023-02-18T11:22:54.229Z,98853.28
2023-02-18T11:25:33.233Z,98846.28
2023-02-18T11:28:06.883Z,98855.06
2023-02-18T11:30:38.592Z,98848.94
2023-02-18T11:33:10.633Z,98842.97
2023-02-18T11:35:38.274Z,98858.16
2023-02-18T11:38:23.050Z,98804.84
2023-02-18T11:41:08.794Z,98828.38
2023-02-18T11:43:35.694Z,98844.47
2023-02-18T11:46:20.077Z,98821.69
2023-02-18T11:48:48.415Z,98823.59
2023-02-18T11:51:19.928Z,98830.56
2023-02-18T11:54:00.627Z,98812.91
2023-02-18T11:56:33.896Z,98798.41
2023-02-18T11:59:02.962Z,98814.00
2023-02-18T12:01:59.139Z,98792.34
2023-02-18T12:04:46.029Z,98741.50
2023-02-18T12:07:21.447Z,98769.13
2023-02-18T12:09:56.439Z,98724.56
2023-02-18T12:12:46.358Z,98784.19
2023-02-18T12:15:27.808Z,98788.22
2023-02-18T12:18:16.657Z,98731.69
2023-02-18T12:21:06.411Z,98791.38
2023-02-18T12:24:05.832Z,98772.91
2023-02-18T12:27:02.052Z,98759.16
2023-02-18T12:29:40.294Z,98764.22
2023-02-18T12:32:18.674Z,98777.16
2023-02-18T12:34:59.111Z,98763.88
2023-02-18T12:37:41.478Z,98764.88
2023-02-18T12:40:46.975Z,98758.31
2023-02-18T12:43:44.629Z,98766.31
2023-02-18T12:46:23.348Z,98766.81
2023-02-18T12:49:26.019Z,98766.94
2023-02-18T12:52:13.364Z,98757.19
2023-02-18T12:55:19.336Z,98687.41
2023-02-18T12:58:23.584Z,98745.78
2023-02-18T13:01:15.467Z,98726.44
2023-02-18T13:04:20.792Z,98754.44
2023-02-18T13:07:28.569Z,98675.84
2023-02-18T13:10:18.404Z,98745.50
2023-02-18T13:13:14.580Z,98743.66
2023-02-18T13:16:15.001Z,98721.63
2023-02-18T13:18:54.713Z,98694.59
2023-02-18T13:21:23.318Z,98723.75
2023-02-18T13:23:53.660Z,98704.94
2023-02-18T13:26:21.611Z,98725.03
2023-02-18T13:29:23.974Z,98712.00
2023-02-18T13:32:11.954Z,98717.66
2023-02-18T13:34:49.838Z,98718.09
2023-02-18T13:37:21.271Z,98680.44
2023-02-18T13:40:00.938Z,98711.75
2023-02-18T13:42:36.796Z,98710.34
2023-02-18T13:45:06.176Z,98684.81
2023-02-18T13:47:47.185Z,98727.03
2023-02-18T13:50:29.240Z,98701.09
2023-02-18T13:53:16.509Z,98737.03
2023-02-18T13:56:22.194Z,98697.31
2023-02-18T13:58:52.827Z,98721.56
2023-02-18T14:01:29.854Z,98724.72
2023-02-18T14:03:59.860Z,98702.78
2023-02-18T14:06:31.470Z,98702.97
2023-02-18T14:09:13.318Z,98704.69
2023-02-18T14:11:55.521Z,98673.28
2023-02-18T14:14:28.275Z,98712.13
2023-02-18T14:17:15.321Z,98720.13
2023-02-18T14:19:42.396Z,98724.25
2023-02-18T14:22:29.170Z,98720.66
2023-02-18T14:25:35.305Z,98716.66
2023-02-18T14:28:23.574Z,98724.31
2023-02-18T14:30:52.190Z,98691.13
2023-02-18T14:33:19.546Z,98703.22
2023-02-18T14:35:57.054Z,98688.09
2023-02-18T14:39:01.554Z,98721.63
2023-02-18T14:41:40.217Z,98707.72
2023-02-18T14:44:39.749Z,98695.38
2023-02-18T14:47:35.864Z,98721.25
2023-02-18T14:50:05.744Z,98687.28
2023-02-18T14:52:51.926Z,98710.06
2023-02-18T14:55:34.999Z,98714.72
2023-02-18T14:58:10.167Z,98722.47
2023-02-18T15:00:42.929Z,98727.16
2023-02-18T15:03:19.512Z,98739.75
2023-02-18T15:05:47.860Z,98736.56
2023-02-18T15:08:24.758Z,98729.47
2023-02-18T15:11:06.987Z,98748.41
2023-02-18T15:13:37.160Z,98732.22
2023-02-18T15:16:07.804Z,98679.28
2023-02-18T15:18:38.054Z,98742.91
2023-02-18T15:21:08.244Z,98718.91
2023-02-18T15:23:40.732Z,98729.94
2023-02-18T15:26:16.021Z,98721.38
2023-02-18T15:29:05.934Z,98745.72
2023-02-18T15:31:39.259Z,98733.28
2023-02-18T15:34:33.255Z,98741.66
2023-02-18T15:37:01.885Z,98733.72
2023-02-18T15:39:29.495Z,98708.97
2023-02-18T15:42:03.132Z,98750.31
2023-02-18T15:44:32.561Z,98727.78
2023-02-18T15:47:06.724Z,98714.25
2023-02-18T15:49:36.610Z,98736.41
2023-02-18T15:52:05.558Z,98743.78
2023-02-18T15:54:33.170Z,98740.28
2023-02-18T15:57:02.740Z,98747.03
2023-02-18T15:59:34.269Z,98727.59
2023-02-18T16:02:23.024Z,98732.69
2023-02-18T16:04:58.214Z,98742.16
2023-02-18T16:07:28.124Z,98723.31
2023-02-18T16:10:25.078Z,98708.63
2023-02-18T16:13:00.571Z,98711.69
2023-02-18T16:15:33.207Z,98657.25
2023-02-18T16:18:00.305Z,98740.31
2023-02-18T16:20:30.750Z,98729.09
2023-02-18T16:23:03.705Z,98743.66
2023-02-18T16:25:45.802Z,98724.59
2023-02-18T16:28:12.828Z,98749.41
2023-02-18T16:30:41.593Z,98729.13
2023-02-18T16:33:09.995Z,98741.00
2023-02-18T16:35:49.135Z,98754.13
2023-02-18T16:38:28.191Z,98756.81
2023-02-18T16:40:55.301Z,98776.47
2023-02-18T16:43:26.111Z,98772.59
2023-02-18T16:45:57.587Z,98758.22
2023-02-18T16:48:37.689Z,98768.69
2023-02-18T16:51:26.388Z,98774.22
2023-02-18T16:53:53.038Z,98776.69
2023-02-18T16:56:23.418Z,98781.19
2023-02-18T16:58:50.973Z,98772.56
2023-02-18T17:01:24.426Z,98779.16
2023-02-18T17:03:52.637Z,98748.44
2023-02-18T17:06:19.985Z,98740.25
2023-02-18T17:08:53.230Z,98779.56
2023-02-18T17:11:33.240Z,98783.44
2023-02-18T17:14:00.371Z,98785.09
2023-02-18T17:16:27.880Z,98725.28
2023-02-18T17:18:54.826Z,98790.88
2023-02-18T17:21:24.099Z,98693.72
2023-02-18T17:23:53.264Z,98787.13
2023-02-18T17:26:31.992Z,98774.69
2023-02-18T17:29:00.637Z,98800.06
2023-02-18T17:31:34.703Z,98742.28
2023-02-18T17:34:06.474Z,98799.22
2023-02-18T17:36:33.918Z,98781.44
2023-02-18T17:39:02.733Z,98775.69
2023-02-18T17:41:32.920Z,98800.06
2023-02-18T17:43:59.468Z,98791.69
2023-02-18T17:46:26.019Z,98805.78
2023-02-18T17:48:52.801Z,98800.47
2023-02-18T17:51:25.457Z,98800.47
2023-02-18T17:53:52.728Z,98814.84
2023-02-18T17:56:20.202Z,98800.50
2023-02-18T17:58:47.846Z,98792.28
2023-02-18T18:01:15.262Z,98802.94
2023-02-18T18:03:42.243Z,98804.16
2023-02-18T18:06:21.055Z,98795.38
2023-02-18T18:08:48.912Z,98809.50
2023-02-18T18:11:25.162Z,98805.00
2023-02-18T18:13:55.112Z,98781.22
2023-02-18T18:16:25.330Z,98792.72
2023-02-18T18:18:52.231Z,98807.25
2023-02-18T18:21:24.190Z,98781.03
2023-02-18T18:23:51.427Z,98804.78
2023-02-18T18:26:18.052Z,98806.59
2023-02-18T18:28:44.980Z,98806.63
2023-02-18T18:31:18.874Z,98785.66
2023-02-18T18:33:50.425Z,98819.31
2023-02-18T18:36:19.495Z,98806.63
2023-02-18T18:38:46.226Z,98793.28
2023-02-18T18:41:22.553Z,98784.03
2023-02-18T18:43:50.171Z,98795.94
2023-02-18T18:46:17.396Z,98793.66
2023-02-18T18:48:44.389Z,98822.34
2023-02-18T18:51:16.965Z,98787.72
2023-02-18T18:53:45.338Z,98774.38
2023-02-18T18:56:13.427Z,98829.91
2023-02-18T18:58:40.998Z,98811.66
2023-02-18T19:01:16.024Z,98786.50
2023-02-18T19:03:43.515Z,98819.47
2023-02-18T19:06:11.764Z,98814.75
2023-02-18T19:08:38.417Z,98819.69
2023-02-18T19:11:07.792Z,98811.09
2023-02-18T19:13:36.164Z,98781.34
2023-02-18T19:16:18.994Z,98808.41
2023-02-18T19:18:47.072Z,98806.16
2023-02-18T19:21:17.203Z,98808.59
2023-02-18T19:23:45.597Z,98802.63
2023-02-18T19:26:14.877Z,98817.81
2023-02-18T19:28:41.722Z,98811.25
2023-02-18T19:31:14.669Z,98820.25
2023-02-18T19:33:45.844Z,98780.34
2023-02-18T19:36:13.280Z,98821.31
2023-02-18T19:38:40.300Z,98789.72
2023-02-18T19:41:15.141Z,98813.94
2023-02-18T19:43:43.987Z,98777.25
2023-02-18T19:46:14.571Z,98819.25
2023-02-18T19:48:41.978Z,98778.25
2023-02-18T19:51:09.716Z,98743.00
2023-02-18T19:53:36.765Z,98810.25
2023-02-18T19:56:09.857Z,98789.16
2023-02-18T19:58:51.476Z,98765.38
2023-02-18T20:01:24.344Z,98725.78
2023-02-18T20:03:56.473Z,98764.34
2023-02-18T20:06:46.958Z,98798.97
2023-02-18T20:09:16.428Z,98813.31
2023-02-18T20:11:43.019Z,98811.88
2023-02-18T20:14:10.860Z,98799.19
2023-02-18T20:16:38.077Z,98806.94
2023-02-18T20:19:05.350Z,98797.09
2023-02-18T20:21:32.584Z,98803.06
2023-02-18T20:23:59.076Z,98794.88
2023-02-18T20:26:26.210Z,98769.03
2023-02-18T20:28:52.769Z,98775.16
2023-02-18T20:31:19.551Z,98799.97
2023-02-18T20:33:46.203Z,98768.44
2023-02-18T20:36:14.538Z,98733.97
2023-02-18T20:38:49.486Z,98795.25
2023-02-18T20:41:18.128Z,98810.22
2023-02-18T20:43:48.645Z,98796.69
2023-02-18T20:46:17.912Z,98755.69
2023-02-18T20:48:45.932Z,98762.84
2023-02-18T20:51:22.348Z,98752.78
2023-02-18T20:53:49.271Z,98787.22
2023-02-18T20:56:20.151Z,98754.66
2023-02-18T20:58:47.405Z,98780.88
2023-02-18T21:01:16.527Z,98786.81
2023-02-18T21:03:46.340Z,98781.50
2023-02-18T21:06:15.943Z,98789.69
2023-02-18T21:08:44.377Z,98787.53
2023-02-18T21:11:20.592Z,98719.91
2023-02-18T21:13:48.947Z,98719.06
2023-02-18T21:16:17.380Z,98752.66
2023-02-18T21:18:44.236Z,98774.97
2023-02-18T21:21:12.533Z,98713.69
2023-02-18T21:23:40.074Z,98729.06
2023-02-18T21:26:09.903Z,98754.69
2023-02-18T21:28:37.253Z,98738.50
2023-02-18T21:31:05.793Z,98750.38
2023-02-18T21:33:32.462Z,98763.47
2023-02-18T21:36:04.848Z,98767.19
2023-02-18T21:38:35.034Z,98760.84
2023-02-18T21:41:04.487Z,98752.03
2023-02-18T21:43:31.878Z,98749.56
2023-02-18T21:46:09.080Z,98752.22
2023-02-18T21:48:55.600Z,98750.78
2023-02-18T21:51:41.214Z,98752.22
2023-02-18T21:54:08.034Z,98743.00
2023-02-18T21:56:35.985Z,98735.63
2023-02-18T21:59:03.615Z,98701.59
2023-02-18T22:01:30.427Z,98734.78
2023-02-18T22:03:57.340Z,98712.47
2023-02-18T22:06:23.876Z,98713.53
2023-02-18T22:08:50.518Z,98727.06
2023-02-18T22:11:17.279Z,98718.03
2023-02-18T22:13:48.028Z,98700.84
2023-02-18T22:16:15.824Z,98711.47
2023-02-18T22:18:45.005Z,98692.00
2023-02-18T22:21:13.037Z,98684.81
2023-02-18T22:23:39.761Z,98697.09
2023-02-18T22:26:08.152Z,98707.34
2023-02-18T22:28:35.699Z,98705.53
2023-02-18T22:31:10.449Z,98693.84
2023-02-18T22:33:38.130Z,98703.69
2023-02-18T22:36:09.741Z,98688.06
2023-02-18T22:38:37.967Z,98710.00
2023-02-18T22:41:11.451Z,98671.91
2023-02-18T22:43:39.071Z,98700.16
2023-02-18T22:46:12.649Z,98714.69
2023-02-18T22:48:43.025Z,98715.69
2023-02-18T22:51:25.312Z,98696.66
2023-02-18T22:53:56.192Z,98677.75
2023-02-18T22:56:25.982Z,98680.66
2023-02-18T22:58:55.269Z,98672.22
2023-02-18T23:01:31.253Z,98692.50
2023-02-18T23:04:03.789Z,98692.94
2023-02-18T23:06:30.722Z,98691.50
2023-02-18T23:08:57.395Z,98649.28
2023-02-18T23:11:24.533Z,98696.00
2023-02-18T23:14:14.782Z,98695.00
2023-02-18T23:17:00.090Z,98672.44
2023-02-18T23:19:31.339Z,98596.66
2023-02-18T23:21:58.616Z,98691.56
2023-02-18T23:24:28.724Z,98660.38
2023-02-18T23:27:05.885Z,98660.03
2023-02-18T23:29:34.193Z,98691.34
2023-02-18T23:32:01.069Z,98702.97
2023-02-18T23:34:29.288Z,98685.53
2023-02-18T23:36:56.117Z,98685.97
2023-02-18T23:39:23.579Z,98689.41
2023-02-18T23:41:51.468Z,98676.94
2023-02-18T23:44:23.916Z,98674.88
2023-02-18T23:46:51.346Z,98686.13
2023-02-18T23:49:22.149Z,98631.75
2023-02-18T23:51:50.935Z,98643.53
2023-02-18T23:54:17.917Z,98660.94
2023-02-18T23:56:45.010Z,98665.03
2023-02-18T23:59:12.147Z,98638.88
